createdAt,value
2023-04-20T00:02:04.133Z,35.80
2023-04-20T00:04:30.695Z,35.60
2023-04-20T00:06:57.186Z,35.80
2023-04-20T00:09:23.682Z,35.80
2023-04-20T00:11:50.154Z,35.80
2023-04-20T00:14:16.616Z,35.80
2023-04-20T00:16:43.126Z,35.80
2023-04-20T00:19:09.660Z,35.80
2023-04-20T00:21:36.142Z,35.90
2023-04-20T00:24:02.625Z,35.70
2023-04-20T00:26:29.103Z,35.90
2023-04-20T00:28:55.578Z,36.00
2023-04-20T00:31:22.061Z,35.90
2023-04-20T00:33:53.513Z,35.80
2023-04-20T00:36:19.994Z,35.80
2023-04-20T00:38:46.480Z,35.80
2023-04-20T00:41:12.970Z,35.70
2023-04-20T00:43:39.443Z,35.90
2023-04-20T00:46:11.424Z,35.90
2023-04-20T00:48:37.953Z,35.80
2023-04-20T00:51:04.444Z,35.80
2023-04-20T00:53:30.912Z,35.80
2023-04-20T00:55:57.387Z,35.80
2023-04-20T00:58:23.848Z,35.80
2023-04-20T01:00:50.327Z,35.80
2023-04-20T01:03:16.888Z,36.00
2023-04-20T01:05:43.456Z,35.80
2023-04-20T01:08:09.932Z,35.90
2023-04-20T01:10:36.432Z,35.80
2023-04-20T01:13:02.905Z,35.90
2023-04-20T01:15:29.378Z,36.00
2023-04-20T01:17:55.920Z,36.00
2023-04-20T01:20:22.419Z,35.90
2023-04-20T01:22:48.888Z,36.00
2023-04-20T01:25:15.391Z,36.00
2023-04-20T01:27:41.880Z,35.80
2023-04-20T01:30:08.359Z,36.00
2023-04-20T01:32:34.955Z,36.00
2023-04-20T01:35:01.634Z,35.90
2023-04-20T01:37:28.106Z,36.00
2023-04-20T01:39:54.621Z,35.80
2023-04-20T01:42:21.147Z,35.90
2023-04-20T01:44:47.615Z,35.90
2023-04-20T01:47:14.086Z,35.90
2023-04-20T01:49:40.561Z,35.80
2023-04-20T01:52:07.033Z,35.90
2023-04-20T01:54:33.517Z,35.70
2023-04-20T01:56:59.989Z,35.80
2023-04-20T01:59:26.452Z,35.80
2023-04-20T02:01:52.953Z,35.90
2023-04-20T02:04:23.444Z,35.70
2023-04-20T02:06:49.924Z,35.70
2023-04-20T02:09:16.556Z,35.70
2023-04-20T02:11:47.424Z,35.70
2023-04-20T02:14:13.895Z,35.70
2023-04-20T02:16:40.397Z,35.80
2023-04-20T02:19:06.891Z,35.80
2023-04-20T02:21:33.385Z,35.80
2023-04-20T02:23:59.841Z,35.70
2023-04-20T02:26:29.435Z,35.70
2023-04-20T02:28:55.902Z,35.80
2023-04-20T02:31:22.464Z,35.70
2023-04-20T02:33:48.982Z,35.70
2023-04-20T02:36:15.454Z,35.70
2023-04-20T02:38:41.934Z,35.80
2023-04-20T02:41:08.401Z,35.70
2023-04-20T02:43:34.889Z,35.70
2023-04-20T02:46:01.412Z,35.70
2023-04-20T02:48:27.899Z,35.80
2023-04-20T02:50:54.370Z,35.70
2023-04-20T02:53:23.471Z,35.80
2023-04-20T02:55:49.952Z,35.70
2023-04-20T02:58:16.429Z,35.80
2023-04-20T03:00:42.893Z,35.90
2023-04-20T03:03:11.697Z,35.80
2023-04-20T03:05:38.255Z,35.80
2023-04-20T03:08:04.736Z,35.90
2023-04-20T03:10:31.209Z,35.90
2023-04-20T03:12:57.697Z,35.90
2023-04-20T03:15:24.183Z,36.00
2023-04-20T03:17:50.725Z,36.00
2023-04-20T03:20:17.262Z,36.00
2023-04-20T03:22:43.735Z,36.10
2023-04-20T03:25:10.207Z,36.20
2023-04-20T03:27:36.731Z,36.30
2023-04-20T03:30:03.200Z,36.40
2023-04-20T03:32:32.085Z,36.30
2023-04-20T03:34:59.161Z,36.40
2023-04-20T03:37:29.670Z,36.40
2023-04-20T03:39:56.132Z,36.40
2023-04-20T03:42:22.607Z,36.60
2023-04-20T03:44:49.084Z,36.40
2023-04-20T03:47:15.590Z,36.70
2023-04-20T03:49:42.057Z,36.60
2023-04-20T03:52:08.518Z,36.60
2023-04-20T03:54:35.012Z,36.80
2023-04-20T03:57:01.490Z,36.80
2023-04-20T03:59:27.952Z,37.00
2023-04-20T04:01:54.436Z,37.00
2023-04-20T04:04:23.710Z,37.00
2023-04-20T04:06:50.476Z,37.10
2023-04-20T04:09:17.740Z,37.00
2023-04-20T04:11:44.385Z,37.00
2023-04-20T04:14:10.877Z,37.30
2023-04-20T04:16:37.366Z,37.20
2023-04-20T04:19:03.880Z,37.10
2023-04-20T04:21:30.347Z,37.20
2023-04-20T04:23:57.238Z,37.30
2023-04-20T04:26:23.700Z,37.40
2023-04-20T04:28:50.163Z,37.30
2023-04-20T04:31:16.673Z,37.30
2023-04-20T04:33:43.187Z,37.30
2023-04-20T04:36:09.656Z,37.40
2023-04-20T04:38:36.140Z,37.50
2023-04-20T04:41:02.623Z,37.40
2023-04-20T04:43:29.134Z,37.50
2023-04-20T04:45:55.677Z,37.60
2023-04-20T04:48:22.217Z,37.80
2023-04-20T04:50:53.652Z,37.70
2023-04-20T04:53:20.119Z,37.90
2023-04-20T04:55:46.619Z,37.80
2023-04-20T04:58:13.106Z,37.80
2023-04-20T05:00:39.592Z,37.90
2023-04-20T05:03:06.146Z,38.10
2023-04-20T05:05:32.701Z,38.00
2023-04-20T05:07:59.173Z,38.00
2023-04-20T05:10:25.650Z,38.10
2023-04-20T05:12:52.125Z,38.20
2023-04-20T05:15:18.605Z,38.20
2023-04-20T05:17:45.106Z,38.20
2023-04-20T05:20:11.625Z,38.20
2023-04-20T05:22:38.095Z,38.30
2023-04-20T05:25:04.576Z,38.20
2023-04-20T05:27:31.049Z,38.30
2023-04-20T05:30:06.441Z,38.40
2023-04-20T05:32:43.451Z,38.30
2023-04-20T05:35:09.945Z,38.30
2023-04-20T05:37:36.436Z,38.40
2023-04-20T05:40:02.922Z,38.40
2023-04-20T05:42:29.383Z,38.40
2023-04-20T05:44:55.870Z,38.40
2023-04-20T05:47:22.375Z,38.50
2023-04-20T05:49:48.869Z,38.60
2023-04-20T05:52:15.328Z,38.50
2023-04-20T05:54:41.816Z,38.50
2023-04-20T05:57:11.788Z,38.50
2023-04-20T05:59:38.258Z,38.70
2023-04-20T06:02:04.804Z,38.60
2023-04-20T06:04:31.538Z,38.80
2023-04-20T06:06:58.389Z,38.80
2023-04-20T06:09:24.877Z,38.90
2023-04-20T06:11:51.333Z,39.00
2023-04-20T06:14:17.807Z,39.00
2023-04-20T06:16:44.271Z,39.10
2023-04-20T06:19:10.740Z,39.10
2023-04-20T06:21:37.204Z,39.10
2023-04-20T06:24:03.677Z,39.10
2023-04-20T06:26:30.150Z,39.30
2023-04-20T06:28:56.616Z,39.50
2023-04-20T06:31:23.104Z,39.30
2023-04-20T06:33:49.594Z,39.40
2023-04-20T06:36:16.068Z,39.40
2023-04-20T06:38:42.540Z,39.30
2023-04-20T06:41:09.022Z,39.40
2023-04-20T06:43:35.561Z,39.40
2023-04-20T06:46:02.052Z,39.40
2023-04-20T06:48:32.592Z,39.50
2023-04-20T06:50:59.607Z,39.50
2023-04-20T06:53:26.078Z,39.60
2023-04-20T06:55:52.751Z,39.60
2023-04-20T06:58:19.224Z,39.70
2023-04-20T07:00:45.693Z,39.80
2023-04-20T07:03:12.421Z,39.90
2023-04-20T07:05:38.980Z,39.80
2023-04-20T07:08:05.533Z,39.90
2023-04-20T07:10:32.223Z,39.90
2023-04-20T07:12:58.692Z,39.90
2023-04-20T07:15:25.158Z,40.10
2023-04-20T07:17:51.642Z,40.10
2023-04-20T07:20:18.179Z,40.30
2023-04-20T07:22:44.666Z,40.30
2023-04-20T07:25:11.160Z,40.10
2023-04-20T07:27:37.641Z,40.20
2023-04-20T07:30:04.131Z,40.50
2023-04-20T07:32:30.638Z,40.60
2023-04-20T07:34:57.143Z,40.70
2023-04-20T07:37:25.731Z,40.60
2023-04-20T07:39:53.576Z,40.70
2023-04-20T07:42:20.038Z,40.70
2023-04-20T07:44:46.509Z,40.70
2023-04-20T07:47:13.019Z,40.70
2023-04-20T07:49:39.500Z,40.80
2023-04-20T07:52:15.715Z,41.00
2023-04-20T07:54:43.606Z,40.90
2023-04-20T07:57:10.094Z,41.00
2023-04-20T07:59:41.732Z,41.00
2023-04-20T08:02:08.325Z,40.90
2023-04-20T08:04:35.272Z,41.10
2023-04-20T08:07:02.041Z,41.10
2023-04-20T08:09:28.523Z,41.10
2023-04-20T08:11:55.005Z,40.90
2023-04-20T08:14:21.563Z,41.00
2023-04-20T08:16:48.103Z,41.10
2023-04-20T08:21:45.941Z,41.20
2023-04-20T08:24:12.401Z,41.40
2023-04-20T08:26:38.938Z,41.40
2023-04-20T08:29:05.425Z,41.50
2023-04-20T08:31:31.928Z,41.50
2023-04-20T08:33:58.437Z,41.70
2023-04-20T08:36:24.937Z,41.50
2023-04-20T08:38:51.423Z,41.70
2023-04-20T08:41:17.888Z,41.60
2023-04-20T08:43:44.367Z,41.60
2023-04-20T08:46:11.777Z,41.60
2023-04-20T08:48:38.288Z,41.80
2023-04-20T08:51:04.799Z,41.80
2023-04-20T08:53:31.280Z,41.70
2023-04-20T08:55:57.764Z,41.90
2023-04-20T08:58:24.226Z,42.00
2023-04-20T09:00:53.770Z,42.00
2023-04-20T09:03:20.573Z,42.00
2023-04-20T09:05:47.247Z,42.00
2023-04-20T09:08:13.924Z,42.00
2023-04-20T09:10:40.432Z,42.00
2023-04-20T09:13:06.934Z,42.00
2023-04-20T09:15:33.419Z,42.10
2023-04-20T09:17:59.946Z,42.10
2023-04-20T09:20:26.429Z,42.40
2023-04-20T09:22:52.899Z,42.40
2023-04-20T09:25:19.439Z,42.50
2023-04-20T09:27:46.499Z,42.60
2023-04-20T09:30:12.997Z,42.70
2023-04-20T09:32:41.815Z,42.40
2023-04-20T09:35:08.315Z,42.50
2023-04-20T09:37:34.790Z,42.50
2023-04-20T09:40:01.283Z,42.80
2023-04-20T09:42:27.750Z,42.80
2023-04-20T09:44:54.228Z,42.90
2023-04-20T09:47:20.740Z,42.80
2023-04-20T09:49:47.255Z,42.80
2023-04-20T09:52:13.741Z,42.70
2023-04-20T09:54:40.204Z,42.70
2023-04-20T09:57:06.680Z,42.80
2023-04-20T09:59:33.175Z,42.80
2023-04-20T10:01:59.914Z,43.00
2023-04-20T10:04:26.650Z,42.90
2023-04-20T10:06:53.295Z,43.20
2023-04-20T10:09:19.772Z,43.20
2023-04-20T10:11:53.074Z,43.20
2023-04-20T10:14:21.070Z,43.20
2023-04-20T10:16:47.681Z,43.30
2023-04-20T10:19:14.170Z,43.30
2023-04-20T10:21:40.650Z,43.40
2023-04-20T10:24:07.121Z,43.60
2023-04-20T10:26:33.621Z,43.40
2023-04-20T10:29:00.121Z,43.50
2023-04-20T10:31:26.636Z,43.60
2023-04-20T10:33:53.148Z,43.80
2023-04-20T10:36:19.637Z,43.80
2023-04-20T10:38:46.114Z,43.80
2023-04-20T10:41:12.598Z,44.00
2023-04-20T10:43:39.198Z,44.00
2023-04-20T10:46:05.777Z,44.00
2023-04-20T10:48:32.255Z,44.10
2023-04-20T10:50:58.732Z,44.00
2023-04-20T10:53:25.189Z,44.20
2023-04-20T10:55:51.661Z,44.00
2023-04-20T10:58:18.130Z,44.00
2023-04-20T11:00:44.596Z,44.10
2023-04-20T11:03:11.189Z,44.20
2023-04-20T11:05:37.735Z,44.20
2023-04-20T11:08:04.248Z,44.10
2023-04-20T11:10:33.500Z,44.30
2023-04-20T11:13:06.051Z,44.30
2023-04-20T11:15:32.520Z,44.30
2023-04-20T11:17:58.997Z,44.30
2023-04-20T11:20:25.492Z,44.30
2023-04-20T11:22:54.404Z,44.50
2023-04-20T11:25:21.269Z,44.40
2023-04-20T11:27:47.767Z,44.30
2023-04-20T11:30:14.297Z,44.40
2023-04-20T11:32:40.916Z,44.30
2023-04-20T11:35:07.859Z,44.40
2023-04-20T11:37:34.481Z,44.30
2023-04-20T11:40:00.969Z,44.30
2023-04-20T11:42:27.437Z,44.30
2023-04-20T11:44:53.912Z,44.30
2023-04-20T11:47:24.069Z,44.30
2023-04-20T11:49:50.587Z,44.30
2023-04-20T11:52:17.065Z,44.40
2023-04-20T11:54:47.923Z,44.30
2023-04-20T11:57:14.392Z,44.40
2023-04-20T11:59:40.885Z,44.10
2023-04-20T12:02:07.445Z,44.30
2023-04-20T12:04:34.212Z,44.40
2023-04-20T12:07:00.840Z,44.40
2023-04-20T12:09:27.317Z,44.20
2023-04-20T12:11:53.777Z,44.20
2023-04-20T12:14:23.915Z,44.20
2023-04-20T12:16:50.383Z,44.20
2023-04-20T12:19:17.318Z,44.20
2023-04-20T12:21:43.951Z,44.20
2023-04-20T12:24:10.421Z,44.20
2023-04-20T12:26:38.793Z,44.20
2023-04-20T12:29:05.468Z,44.00
2023-04-20T12:31:32.055Z,44.10
2023-04-20T12:33:58.583Z,44.00
2023-04-20T12:36:25.062Z,44.00
2023-04-20T12:38:51.518Z,43.80
2023-04-20T12:41:17.976Z,43.90
2023-04-20T12:43:44.466Z,43.90
2023-04-20T12:46:10.990Z,43.80
2023-04-20T12:48:37.502Z,43.90
2023-04-20T12:51:05.954Z,43.80
2023-04-20T12:53:32.436Z,43.80
2023-04-20T12:56:01.412Z,43.70
2023-04-20T12:58:28.124Z,43.80
2023-04-20T13:00:54.654Z,43.80
2023-04-20T13:03:21.328Z,43.80
2023-04-20T13:05:48.009Z,43.70
2023-04-20T13:08:14.476Z,43.60
2023-04-20T13:10:40.976Z,43.70
2023-04-20T13:13:07.440Z,43.60
2023-04-20T13:15:39.257Z,43.70
2023-04-20T13:18:06.345Z,43.70
2023-04-20T13:20:35.972Z,43.60
2023-04-20T13:23:02.452Z,43.60
2023-04-20T13:25:28.934Z,43.60
2023-04-20T13:27:55.417Z,43.60
2023-04-20T13:30:23.587Z,43.50
2023-04-20T13:32:50.914Z,43.50
2023-04-20T13:35:17.460Z,43.50
2023-04-20T13:37:43.924Z,43.50
2023-04-20T13:40:10.395Z,43.50
2023-04-20T13:42:36.868Z,43.50
2023-04-20T13:45:03.341Z,43.50
2023-04-20T13:47:29.885Z,43.60
2023-04-20T13:49:56.374Z,43.60
2023-04-20T13:52:22.801Z,43.40
2023-04-20T13:54:49.274Z,43.40
2023-04-20T13:57:15.744Z,43.50
2023-04-20T13:59:42.221Z,43.50
2023-04-20T14:02:08.750Z,43.50
2023-04-20T14:04:35.332Z,43.40
2023-04-20T14:07:01.871Z,43.40
2023-04-20T14:09:28.332Z,43.40
2023-04-20T14:11:57.061Z,43.30
2023-04-20T14:14:23.710Z,43.40
2023-04-20T14:16:50.193Z,43.30
2023-04-20T14:19:16.673Z,43.30
2023-04-20T14:21:43.136Z,43.20
2023-04-20T14:24:09.609Z,43.10
2023-04-20T14:26:36.121Z,43.20
2023-04-20T14:29:02.601Z,43.10
2023-04-20T14:31:29.103Z,43.10
2023-04-20T14:33:55.611Z,43.10
2023-04-20T14:36:22.086Z,43.00
2023-04-20T14:38:48.551Z,43.10
2023-04-20T14:41:15.025Z,43.00
2023-04-20T14:43:41.558Z,42.80
2023-04-20T14:46:08.050Z,42.80
2023-04-20T14:48:36.024Z,42.60
2023-04-20T14:51:02.480Z,42.60
2023-04-20T14:53:29.818Z,42.70
2023-04-20T14:55:56.991Z,42.70
2023-04-20T14:58:23.446Z,42.70
2023-04-20T15:00:54.068Z,42.70
2023-04-20T15:03:20.707Z,42.70
2023-04-20T15:05:47.681Z,42.80
2023-04-20T15:08:14.363Z,42.80
2023-04-20T15:10:40.843Z,42.80
2023-04-20T15:13:07.308Z,42.60
2023-04-20T15:15:46.839Z,42.50
2023-04-20T15:18:14.548Z,42.40
2023-04-20T15:20:41.067Z,42.30
2023-04-20T15:23:07.562Z,42.30
2023-04-20T15:25:34.035Z,42.30
2023-04-20T15:28:06.212Z,42.20
2023-04-20T15:30:32.681Z,42.20
2023-04-20T15:33:04.066Z,42.20
2023-04-20T15:35:31.545Z,42.30
2023-04-20T15:37:58.045Z,42.20
2023-04-20T15:40:24.544Z,42.20
2023-04-20T15:42:51.025Z,42.20
2023-04-20T15:45:17.528Z,42.00
2023-04-20T15:47:44.011Z,42.10
2023-04-20T15:50:10.485Z,41.90
2023-04-20T15:52:36.949Z,42.00
2023-04-20T15:55:03.453Z,41.90
2023-04-20T15:57:29.943Z,41.90
2023-04-20T16:00:00.322Z,41.90
2023-04-20T16:02:26.985Z,41.90
2023-04-20T16:04:53.743Z,42.00
2023-04-20T16:07:20.388Z,42.00
2023-04-20T16:09:46.889Z,42.00
2023-04-20T16:12:13.360Z,42.00
2023-04-20T16:14:39.834Z,42.00
2023-04-20T16:17:06.290Z,42.00
2023-04-20T16:19:32.769Z,41.90
2023-04-20T16:21:59.249Z,41.90
2023-04-20T16:24:25.756Z,41.90
2023-04-20T16:26:52.326Z,41.90
2023-04-20T16:29:18.810Z,41.80
2023-04-20T16:31:45.333Z,41.60
2023-04-20T16:34:11.869Z,41.60
2023-04-20T16:36:38.357Z,41.60
2023-04-20T16:39:04.817Z,41.60
2023-04-20T16:41:31.291Z,41.60
2023-04-20T16:43:57.780Z,41.70
2023-04-20T16:46:24.289Z,41.80
2023-04-20T16:48:50.803Z,41.80
2023-04-20T16:51:17.272Z,41.90
2023-04-20T16:53:43.746Z,41.90
2023-04-20T16:56:11.472Z,42.00
2023-04-20T16:58:38.077Z,42.00
2023-04-20T17:01:04.622Z,42.00
2023-04-20T17:03:31.377Z,42.00
2023-04-20T17:05:57.959Z,42.10
2023-04-20T17:08:24.435Z,42.20
2023-04-20T17:10:50.902Z,42.20
2023-04-20T17:13:17.384Z,42.20
2023-04-20T17:15:43.864Z,42.20
2023-04-20T17:18:10.407Z,42.20
2023-04-20T17:20:36.949Z,42.20
2023-04-20T17:23:03.443Z,42.30
2023-04-20T17:25:29.912Z,42.50
2023-04-20T17:27:56.396Z,42.50
2023-04-20T17:30:22.867Z,42.50
2023-04-20T17:32:49.361Z,42.50
2023-04-20T17:35:15.896Z,42.60
2023-04-20T17:37:42.404Z,42.60
2023-04-20T17:40:08.885Z,42.60
2023-04-20T17:42:35.361Z,42.60
2023-04-20T17:45:01.831Z,42.60
2023-04-20T17:47:28.386Z,42.60
2023-04-20T17:49:54.923Z,42.60
2023-04-20T17:52:21.429Z,42.60
2023-04-20T17:54:47.883Z,42.50
2023-04-20T17:57:14.352Z,42.70
2023-04-20T17:59:40.827Z,42.60
2023-04-20T18:02:07.378Z,42.60
2023-04-20T18:04:34.062Z,42.70
2023-04-20T18:07:00.662Z,42.60
2023-04-20T18:09:27.158Z,42.80
2023-04-20T18:11:53.639Z,42.80
2023-04-20T18:14:20.435Z,42.80
2023-04-20T18:16:47.018Z,42.80
2023-04-20T18:19:13.482Z,42.80
2023-04-20T18:21:39.960Z,42.90
2023-04-20T18:24:06.443Z,42.90
2023-04-20T18:26:32.911Z,42.90
2023-04-20T18:28:59.380Z,42.90
2023-04-20T18:31:25.895Z,43.00
2023-04-20T18:33:52.433Z,42.90
2023-04-20T18:36:18.969Z,43.10
2023-04-20T18:38:45.442Z,43.10
2023-04-20T18:41:12.116Z,43.10
2023-04-20T18:43:38.854Z,43.10
2023-04-20T18:46:05.944Z,43.20
2023-04-20T18:48:32.470Z,43.30
2023-04-20T18:50:58.924Z,43.10
2023-04-20T18:53:25.414Z,43.20
2023-04-20T18:55:51.911Z,43.30
2023-04-20T18:58:18.418Z,43.30
2023-04-20T19:00:44.920Z,43.30
2023-04-20T19:03:11.575Z,43.40
2023-04-20T19:05:38.098Z,43.40
2023-04-20T19:08:04.612Z,43.50
2023-04-20T19:10:31.070Z,43.50
2023-04-20T19:12:57.564Z,43.50
2023-04-20T19:15:24.038Z,43.50
2023-04-20T19:17:50.626Z,43.60
2023-04-20T19:20:17.212Z,43.60
2023-04-20T19:22:43.700Z,43.60
2023-04-20T19:25:10.159Z,43.80
2023-04-20T19:27:36.644Z,43.70
2023-04-20T19:30:03.125Z,43.80
2023-04-20T19:32:29.757Z,43.80
2023-04-20T19:34:56.316Z,43.80
2023-04-20T19:37:22.801Z,43.80
2023-04-20T19:39:49.276Z,43.90
2023-04-20T19:42:15.756Z,44.10
2023-04-20T19:44:42.269Z,44.10
2023-04-20T19:47:08.734Z,44.10
2023-04-20T19:49:36.316Z,44.10
2023-04-20T19:52:02.782Z,44.10
2023-04-20T19:54:29.275Z,44.20
2023-04-20T19:56:55.736Z,44.20
2023-04-20T19:59:22.234Z,44.30
2023-04-20T20:01:50.686Z,44.30
2023-04-20T20:04:17.540Z,44.30
2023-04-20T20:06:44.079Z,44.40
2023-04-20T20:09:10.555Z,44.40
2023-04-20T20:11:37.084Z,44.40
2023-04-20T20:14:03.591Z,44.50
2023-04-20T20:16:30.181Z,44.50
2023-04-20T20:18:56.676Z,44.50
2023-04-20T20:21:23.147Z,44.50
2023-04-20T20:23:49.618Z,44.70
2023-04-20T20:26:16.088Z,44.70
2023-04-20T20:28:42.560Z,44.70
2023-04-20T20:31:09.095Z,44.80
2023-04-20T20:33:35.638Z,44.90
2023-04-20T20:36:02.108Z,45.00
2023-04-20T20:38:28.589Z,45.00
2023-04-20T20:40:55.054Z,45.10
2023-04-20T20:43:21.571Z,45.10
2023-04-20T20:45:48.151Z,45.20
2023-04-20T20:48:14.656Z,45.10
2023-04-20T20:50:41.122Z,45.20
2023-04-20T20:53:07.618Z,45.10
2023-04-20T20:55:34.097Z,45.30
2023-04-20T20:58:00.597Z,45.30
2023-04-20T21:00:27.155Z,45.20
2023-04-20T21:02:53.838Z,45.40
2023-04-20T21:05:20.457Z,45.50
2023-04-20T21:07:46.930Z,45.40
2023-04-20T21:10:13.435Z,45.50
2023-04-20T21:12:42.998Z,45.60
2023-04-20T21:15:09.492Z,45.60
2023-04-20T21:17:35.999Z,45.50
2023-04-20T21:20:02.520Z,45.50
2023-04-20T21:22:28.984Z,45.50
2023-04-20T21:25:00.385Z,45.60
2023-04-20T21:27:26.859Z,45.50
2023-04-20T21:29:53.345Z,45.50
2023-04-20T21:32:19.861Z,45.60
2023-04-20T21:34:46.371Z,45.50
2023-04-20T21:37:12.836Z,45.50
2023-04-20T21:39:39.324Z,45.70
2023-04-20T21:42:05.799Z,45.70
2023-04-20T21:44:32.290Z,45.70
2023-04-20T21:46:58.766Z,45.60
2023-04-20T21:49:25.241Z,45.70
2023-04-20T21:51:51.719Z,45.80
2023-04-20T21:54:18.209Z,45.70
2023-04-20T21:56:44.681Z,45.80
2023-04-20T21:59:11.183Z,45.80
2023-04-20T22:01:37.732Z,45.80
2023-04-20T22:04:04.561Z,45.80
2023-04-20T22:06:31.237Z,45.80
2023-04-20T22:08:57.722Z,45.70
2023-04-20T22:11:24.182Z,45.80
2023-04-20T22:13:50.678Z,45.80
2023-04-20T22:16:17.195Z,45.70
2023-04-20T22:18:43.698Z,45.80
2023-04-20T22:21:10.160Z,45.80
2023-04-20T22:23:36.688Z,45.90
2023-04-20T22:26:03.160Z,45.80
2023-04-20T22:28:29.654Z,45.90
2023-04-20T22:30:56.162Z,45.80
2023-04-20T22:33:22.709Z,45.90
2023-04-20T22:35:49.185Z,46.00
2023-04-20T22:38:15.664Z,45.90
2023-04-20T22:40:42.140Z,45.90
2023-04-20T22:43:08.599Z,45.90
2023-04-20T22:45:35.073Z,46.00
2023-04-20T22:48:01.632Z,45.90
2023-04-20T22:50:28.127Z,45.90
2023-04-20T22:52:54.591Z,45.90
2023-04-20T22:55:21.096Z,45.90
2023-04-20T22:57:48.671Z,45.90
2023-04-20T23:00:18.493Z,45.90
2023-04-20T23:02:45.089Z,46.00
2023-04-20T23:05:11.712Z,46.00
2023-04-20T23:07:38.166Z,45.90
2023-04-20T23:10:04.655Z,45.90
2023-04-20T23:12:31.117Z,46.20
2023-04-20T23:14:57.626Z,46.10
2023-04-20T23:17:24.136Z,46.10
2023-04-20T23:19:50.654Z,46.20
2023-04-20T23:22:17.101Z,46.30
2023-04-20T23:24:43.614Z,46.30
2023-04-20T23:27:10.072Z,46.30
2023-04-20T23:29:36.573Z,46.20
2023-04-20T23:32:03.243Z,46.30
2023-04-20T23:34:29.837Z,46.30
2023-04-20T23:36:56.336Z,46.20
2023-04-20T23:39:22.841Z,46.30
2023-04-20T23:41:49.323Z,46.20
2023-04-20T23:44:15.803Z,46.40
2023-04-20T23:46:42.270Z,46.50
2023-04-20T23:49:08.734Z,46.40
2023-04-20T23:51:35.215Z,46.40
2023-04-20T23:54:01.693Z,46.40
2023-04-20T23:56:28.172Z,46.40
2023-04-20T23:58:54.652Z,46.60
